Time;durP1;ratioP1;P1;durP2;ratioP2;P2;SDS_P1;SDS_P2;PMS_P1;PMS_P2;Temp;Humidity;BMP_temperature;BMP_pressure;BME280_temperature;BME280_humidity;BME280_pressure;Samples;Min_cycle;Max_cycle;Signal;HPM_P1;HPM_P2
2022/08/30 00:02:52;;;;;;;5.87;5.37;;;18.50;99.90;;;;;;5043259;28;21235;-79
2022/08/30 00:05:19;;;;;;;5.97;5.47;;;18.50;99.90;;;;;;5044241;28;20631;-79
2022/08/30 00:07:45;;;;;;;5.23;4.73;;;18.40;99.90;;;;;;5047196;28;20632;-80
2022/08/30 00:10:12;;;;;;;4.87;4.47;;;18.40;99.90;;;;;;5041530;28;20686;-80
2022/08/30 00:12:42;;;;;;;5.57;5.07;;;18.40;99.90;;;;;;5048413;28;21199;-80
2022/08/30 00:15:10;;;;;;;5.43;4.90;;;18.30;99.90;;;;;;5046334;28;20637;-80
2022/08/30 00:17:37;;;;;;;5.80;5.10;;;18.30;99.90;;;;;;5046283;28;20634;-81
2022/08/30 00:20:06;;;;;;;4.50;4.20;;;18.30;99.90;;;;;;5046553;28;21037;-80
2022/08/30 00:22:33;;;;;;;4.43;4.03;;;18.20;99.90;;;;;;5048228;28;20685;-80
2022/08/30 00:25:00;;;;;;;7.13;4.93;;;18.20;99.90;;;;;;5044972;28;21053;-79
2022/08/30 00:27:27;;;;;;;4.50;4.10;;;18.20;99.90;;;;;;5046153;28;20625;-80
2022/08/30 00:29:56;;;;;;;5.80;5.30;;;18.20;99.90;;;;;;5046476;28;20637;-80
2022/08/30 00:32:23;;;;;;;5.40;4.90;;;18.20;99.90;;;;;;5047569;28;20645;-80
2022/08/30 00:34:50;;;;;;;4.73;3.90;;;18.10;99.90;;;;;;5045704;28;20626;-80
2022/08/30 00:37:18;;;;;;;5.27;4.80;;;18.10;99.90;;;;;;5043780;28;20631;-80
2022/08/30 00:39:44;;;;;;;4.77;4.27;;;18.10;99.90;;;;;;5045987;28;20626;-80
2022/08/30 00:42:12;;;;;;;4.80;4.47;;;18.00;99.90;;;;;;5045233;28;20678;-80
2022/08/30 00:44:41;;;;;;;5.00;4.60;;;18.00;99.90;;;;;;5047086;28;20622;-80
2022/08/30 00:47:10;;;;;;;5.20;4.80;;;18.00;99.90;;;;;;5048326;28;20630;-80
2022/08/30 00:49:39;;;;;;;6.20;4.90;;;17.90;99.90;;;;;;5045480;28;20869;-80
2022/08/30 00:52:06;;;;;;;5.50;5.10;;;17.90;99.90;;;;;;5044568;28;20664;-79
2022/08/30 00:54:35;;;;;;;5.10;4.70;;;17.90;99.90;;;;;;5045104;28;20626;-80
2022/08/30 00:57:03;;;;;;;5.53;4.70;;;17.90;99.90;;;;;;5044094;28;20716;-80
2022/08/30 00:59:31;;;;;;;4.90;4.50;;;17.90;99.90;;;;;;5052886;28;20627;-79
2022/08/30 01:01:58;;;;;;;6.00;4.87;;;17.90;99.90;;;;;;5046238;28;20678;-80
2022/08/30 01:04:27;;;;;;;5.17;4.67;;;17.80;99.90;;;;;;5043548;28;21390;-80
2022/08/30 01:06:54;;;;;;;4.50;4.20;;;17.80;99.90;;;;;;5046821;28;20630;-80
2022/08/30 01:09:22;;;;;;;4.90;4.33;;;17.90;99.90;;;;;;5042060;28;20627;-80
2022/08/30 01:11:49;;;;;;;5.43;5.03;;;17.80;99.90;;;;;;5045538;28;20649;-80
2022/08/30 01:14:17;;;;;;;4.93;4.40;;;17.80;99.90;;;;;;5044167;28;20627;-80
2022/08/30 01:16:45;;;;;;;5.60;5.10;;;17.80;99.90;;;;;;5045952;28;20628;-80
2022/08/30 01:19:24;;;;;;;5.03;4.63;;;17.80;99.90;;;;;;5044492;28;20637;-80
2022/08/30 01:22:00;;;;;;;4.53;4.17;;;17.70;99.90;;;;;;5045439;28;21142;-80
2022/08/30 01:24:29;;;;;;;5.27;4.87;;;17.70;99.90;;;;;;5046033;28;20652;-80
2022/08/30 01:26:57;;;;;;;6.80;4.37;;;17.70;99.90;;;;;;5044578;28;20638;-80
2022/08/30 01:29:26;;;;;;;5.40;4.73;;;17.60;99.90;;;;;;5044251;28;20630;-80
2022/08/30 01:31:53;;;;;;;5.30;4.80;;;17.60;99.90;;;;;;5044467;28;21227;-80
2022/08/30 01:34:20;;;;;;;5.50;4.80;;;17.60;99.90;;;;;;5043868;28;20633;-80
2022/08/30 01:36:48;;;;;;;5.43;4.93;;;17.50;99.90;;;;;;5044937;28;20681;-79
2022/08/30 01:39:17;;;;;;;5.20;4.73;;;17.50;99.90;;;;;;5044919;28;20658;-79
2022/08/30 01:41:47;;;;;;;5.27;4.77;;;17.50;99.90;;;;;;5045165;28;20701;-80
2022/08/30 01:44:18;;;;;;;5.93;5.33;;;17.40;99.90;;;;;;5045870;28;20710;-80
2022/08/30 01:46:47;;;;;;;5.60;5.10;;;17.40;99.90;;;;;;5042475;28;20675;-80
2022/08/30 01:49:18;;;;;;;6.23;5.53;;;17.40;99.90;;;;;;5043728;28;20651;-80
2022/08/30 01:51:47;;;;;;;5.37;4.97;;;17.30;99.90;;;;;;5043051;28;21032;-80
2022/08/30 01:54:17;;;;;;;5.13;4.73;;;17.20;99.90;;;;;;5042350;28;21036;-79
2022/08/30 01:56:45;;;;;;;5.83;5.33;;;17.20;99.90;;;;;;5041910;28;20669;-79
2022/08/30 01:59:12;;;;;;;5.33;4.90;;;17.20;99.90;;;;;;5044222;28;21239;-79
2022/08/30 02:01:39;;;;;;;7.33;6.00;;;17.20;99.90;;;;;;5044965;28;20808;-79
2022/08/30 02:04:08;;;;;;;6.03;5.40;;;17.10;99.90;;;;;;5041832;28;20764;-79
2022/08/30 02:06:37;;;;;;;6.10;5.50;;;17.10;99.90;;;;;;5045095;28;20633;-79
2022/08/30 02:09:07;;;;;;;5.50;5.00;;;17.10;99.90;;;;;;5040729;28;20630;-79
2022/08/30 02:11:34;;;;;;;7.67;5.90;;;17.00;99.90;;;;;;5045313;28;20709;-79
2022/08/30 02:14:03;;;;;;;6.20;5.60;;;17.00;99.90;;;;;;5043462;28;20706;-79
2022/08/30 02:16:30;;;;;;;6.23;5.70;;;16.90;99.90;;;;;;5043463;28;20688;-79
2022/08/30 02:18:57;;;;;;;7.20;6.60;;;16.90;99.90;;;;;;5042972;28;20641;-78
2022/08/30 02:21:26;;;;;;;6.57;5.83;;;16.90;99.90;;;;;;5045348;28;21092;-79
2022/08/30 02:23:53;;;;;;;7.60;6.50;;;16.90;99.90;;;;;;5044157;28;21222;-79
2022/08/30 02:26:24;;;;;;;6.43;5.93;;;16.90;99.90;;;;;;5041631;28;20646;-79
2022/08/30 02:28:52;;;;;;;6.77;6.20;;;16.80;99.90;;;;;;5043641;28;21144;-78
2022/08/30 02:31:22;;;;;;;9.70;6.57;;;16.80;99.90;;;;;;5043438;28;20689;-78
2022/08/30 02:33:51;;;;;;;8.40;7.03;;;16.70;99.90;;;;;;5045387;28;21205;-79
2022/08/30 02:36:19;;;;;;;6.90;6.30;;;16.70;99.90;;;;;;5041318;28;21173;-78
2022/08/30 02:38:46;;;;;;;7.70;6.63;;;16.70;99.90;;;;;;5044082;28;21270;-79
2022/08/30 02:41:14;;;;;;;7.17;6.50;;;16.70;99.90;;;;;;5042074;28;20732;-79
2022/08/30 02:43:41;;;;;;;9.10;6.90;;;16.70;99.90;;;;;;5042095;28;21237;-79
2022/08/30 02:46:10;;;;;;;8.23;7.30;;;16.60;99.90;;;;;;5044285;28;20672;-79
2022/08/30 02:48:40;;;;;;;7.37;6.70;;;16.60;99.90;;;;;;5043000;28;20996;-78
2022/08/30 02:51:10;;;;;;;8.23;7.43;;;16.60;99.90;;;;;;5042470;28;21245;-78
2022/08/30 02:53:39;;;;;;;9.57;6.97;;;16.60;99.90;;;;;;5044827;28;20610;-79
2022/08/30 02:56:07;;;;;;;7.57;6.73;;;16.50;99.90;;;;;;5041334;28;20633;-78
2022/08/30 02:58:34;;;;;;;7.00;6.30;;;16.50;99.90;;;;;;5044784;28;20654;-78
2022/08/30 03:01:01;;;;;;;6.70;6.20;;;16.50;99.90;;;;;;5043244;28;20664;-79
2022/08/30 03:03:28;;;;;;;6.63;6.00;;;16.50;99.90;;;;;;5042619;28;20761;-78
2022/08/30 03:05:57;;;;;;;6.73;6.13;;;16.50;99.90;;;;;;5044670;28;20621;-78
2022/08/30 03:08:24;;;;;;;7.20;6.43;;;16.40;99.90;;;;;;5038853;28;20697;-78
2022/08/30 03:10:51;;;;;;;8.40;7.40;;;16.50;99.90;;;;;;5044105;28;20641;-78
2022/08/30 03:13:18;;;;;;;8.03;7.10;;;16.40;99.90;;;;;;5042946;28;20729;-79
2022/08/30 03:15:49;;;;;;;7.03;6.47;;;16.30;99.90;;;;;;5043517;28;20636;-78
2022/08/30 03:18:16;;;;;;;7.23;6.53;;;16.30;99.90;;;;;;5043601;28;20773;-78
2022/08/30 03:20:43;;;;;;;8.00;7.20;;;16.30;99.90;;;;;;5044961;28;20653;-78
2022/08/30 03:23:12;;;;;;;8.33;7.70;;;16.20;99.90;;;;;;5041687;28;21278;-78
2022/08/30 03:25:39;;;;;;;8.07;7.27;;;16.20;99.90;;;;;;5042601;28;20665;-78
2022/08/30 03:28:07;;;;;;;8.03;7.20;;;16.20;99.90;;;;;;5042214;28;20662;-79
2022/08/30 03:30:34;;;;;;;7.90;7.30;;;16.20;99.90;;;;;;5044796;28;20634;-78
2022/08/30 03:33:02;;;;;;;7.87;7.27;;;16.20;99.90;;;;;;5044036;28;20630;-79
2022/08/30 03:35:30;;;;;;;8.07;7.47;;;16.10;99.90;;;;;;5042195;28;20630;-79
2022/08/30 03:37:57;;;;;;;10.77;8.20;;;16.20;99.90;;;;;;5043020;28;20638;-79
2022/08/30 03:40:26;;;;;;;7.70;6.93;;;16.20;99.90;;;;;;5042825;28;20637;-79
2022/08/30 03:42:53;;;;;;;7.03;6.43;;;16.10;99.90;;;;;;5043401;28;20673;-79
2022/08/30 03:45:20;;;;;;;8.27;7.47;;;16.00;99.90;;;;;;5044555;28;20642;-78
2022/08/30 03:47:47;;;;;;;7.47;6.80;;;16.00;99.90;;;;;;5042922;28;20626;-79
2022/08/30 03:50:15;;;;;;;7.73;7.13;;;16.00;99.90;;;;;;5042827;28;20630;-79
2022/08/30 03:52:44;;;;;;;8.10;7.40;;;16.00;99.90;;;;;;5043890;28;20658;-80
2022/08/30 03:55:12;;;;;;;8.17;6.80;;;16.00;99.90;;;;;;5045904;28;21065;-79
2022/08/30 03:57:41;;;;;;;8.40;7.80;;;16.00;99.90;;;;;;5046869;28;20999;-79
2022/08/30 04:00:10;;;;;;;7.97;7.27;;;15.90;99.90;;;;;;5047322;28;20702;-78
2022/08/30 04:02:37;;;;;;;8.77;8.03;;;15.90;99.90;;;;;;5046872;28;20685;-79
2022/08/30 04:05:05;;;;;;;8.83;8.00;;;15.90;99.90;;;;;;5045158;28;20629;-78
2022/08/30 04:07:32;;;;;;;7.90;7.20;;;15.90;99.90;;;;;;5046397;28;21156;-78
2022/08/30 04:09:59;;;;;;;8.40;7.37;;;15.80;99.90;;;;;;5047462;28;20718;-78
2022/08/30 04:12:26;;;;;;;8.27;7.57;;;15.70;99.90;;;;;;5047817;28;20705;-78
2022/08/30 04:14:55;;;;;;;8.13;7.50;;;15.80;99.90;;;;;;5043391;28;20741;-78
2022/08/30 04:17:22;;;;;;;12.03;8.13;;;15.80;99.90;;;;;;5044696;28;20633;-79
2022/08/30 04:19:49;;;;;;;8.47;7.60;;;15.70;99.90;;;;;;5047257;28;20632;-78
2022/08/30 04:22:16;;;;;;;8.23;7.60;;;15.70;99.90;;;;;;5044119;28;20655;-78
2022/08/30 04:24:43;;;;;;;8.40;7.70;;;15.70;99.90;;;;;;5045465;28;20672;-78
2022/08/30 04:27:10;;;;;;;8.40;7.60;;;15.70;99.90;;;;;;5046548;28;20634;-79
2022/08/30 04:29:37;;;;;;;7.90;7.30;;;15.70;99.90;;;;;;5047815;28;20626;-78
2022/08/30 04:32:05;;;;;;;9.60;8.20;;;15.70;99.90;;;;;;5045916;28;20652;-79
2022/08/30 04:34:32;;;;;;;8.30;7.40;;;15.70;99.90;;;;;;5042785;28;21196;-78
2022/08/30 04:36:59;;;;;;;8.07;7.10;;;15.60;99.90;;;;;;5044655;28;20637;-79
2022/08/30 04:39:26;;;;;;;8.53;7.80;;;15.70;99.90;;;;;;5045291;28;20622;-79
2022/08/30 04:41:54;;;;;;;8.40;7.60;;;15.60;99.90;;;;;;5046265;28;20653;-79
2022/08/30 04:44:21;;;;;;;8.67;7.87;;;15.70;99.90;;;;;;5044684;28;20788;-79
2022/08/30 04:46:48;;;;;;;8.40;7.60;;;15.60;99.90;;;;;;5045856;28;20634;-79
2022/08/30 04:49:16;;;;;;;8.70;8.03;;;15.60;99.90;;;;;;5044142;28;21042;-79
2022/08/30 04:51:43;;;;;;;9.13;8.40;;;15.60;99.90;;;;;;5045340;28;20650;-79
2022/08/30 04:54:10;;;;;;;9.43;7.77;;;15.60;99.90;;;;;;5043693;28;20625;-79
2022/08/30 04:56:36;;;;;;;9.77;8.63;;;15.60;99.90;;;;;;5046520;28;20638;-79
2022/08/30 04:59:04;;;;;;;8.93;8.23;;;15.60;99.90;;;;;;5045736;28;20965;-79
2022/08/30 05:01:32;;;;;;;11.23;8.67;;;15.60;99.90;;;;;;5045199;28;20646;-79
2022/08/30 05:04:00;;;;;;;8.90;8.10;;;15.60;99.90;;;;;;5044017;28;20673;-80
2022/08/30 05:06:30;;;;;;;9.40;8.60;;;15.60;99.90;;;;;;5045205;28;21565;-79
2022/08/30 05:08:59;;;;;;;9.20;8.40;;;15.60;99.90;;;;;;5043169;28;20636;-79
2022/08/30 05:11:26;;;;;;;9.20;8.40;;;15.70;99.90;;;;;;5046398;28;20677;-79
2022/08/30 05:13:53;;;;;;;9.23;8.53;;;15.70;99.90;;;;;;5046095;28;21108;-79
2022/08/30 05:16:20;;;;;;;10.23;9.20;;;15.70;99.90;;;;;;5045236;28;21072;-79
2022/08/30 05:18:48;;;;;;;8.73;8.03;;;15.70;99.90;;;;;;5046735;28;20662;-79
2022/08/30 05:21:18;;;;;;;10.37;8.97;;;15.70;99.90;;;;;;5045378;28;20732;-79
2022/08/30 05:23:47;;;;;;;10.70;9.80;;;15.70;99.90;;;;;;5044067;28;21006;-79
2022/08/30 05:26:16;;;;;;;9.43;8.70;;;15.80;99.90;;;;;;5046321;28;20641;-79
2022/08/30 05:28:44;;;;;;;10.30;9.40;;;15.80;99.90;;;;;;5044895;28;20625;-79
2022/08/30 05:31:17;;;;;;;9.70;8.80;;;15.90;99.90;;;;;;5042220;28;20666;-79
2022/08/30 05:33:44;;;;;;;9.17;8.47;;;16.00;99.90;;;;;;5044080;28;20621;-80
2022/08/30 05:36:12;;;;;;;10.80;9.17;;;16.20;99.90;;;;;;5042159;28;20630;-80
2022/08/30 05:38:39;;;;;;;10.37;8.83;;;16.30;99.90;;;;;;5046555;28;20999;-80
2022/08/30 05:41:08;;;;;;;11.27;9.33;;;16.50;99.90;;;;;;5042272;28;20650;-80
2022/08/30 05:43:35;;;;;;;10.60;9.70;;;16.60;99.90;;;;;;5044454;28;20666;-80
2022/08/30 05:46:05;;;;;;;12.57;10.10;;;16.70;99.90;;;;;;5044079;28;20750;-79
2022/08/30 05:48:32;;;;;;;12.43;10.50;;;16.80;99.90;;;;;;5044032;28;20625;-80
2022/08/30 05:51:06;;;;;;;10.37;9.37;;;16.90;99.90;;;;;;5045136;28;20658;-80
2022/08/30 05:53:34;;;;;;;11.87;10.37;;;17.00;99.90;;;;;;5044357;28;20613;-80
2022/08/30 05:56:02;;;;;;;13.17;10.93;;;17.10;99.90;;;;;;5041882;28;20634;-79
2022/08/30 05:58:31;;;;;;;10.60;9.60;;;17.20;99.90;;;;;;5044589;28;20849;-80
2022/08/30 06:00:58;;;;;;;12.97;9.77;;;17.20;99.90;;;;;;5042864;28;20654;-80
2022/08/30 06:03:25;;;;;;;9.80;8.80;;;17.30;99.90;;;;;;5042600;28;20662;-80
2022/08/30 06:05:52;;;;;;;9.60;8.60;;;17.30;99.90;;;;;;5041597;28;20648;-80
2022/08/30 06:08:19;;;;;;;13.07;9.10;;;17.40;99.90;;;;;;5038459;28;20638;-79
2022/08/30 06:10:46;;;;;;;10.03;9.13;;;17.40;99.90;;;;;;5042232;28;20753;-79
2022/08/30 06:13:13;;;;;;;10.90;9.70;;;17.40;99.90;;;;;;5046204;28;20618;-80
2022/08/30 06:15:43;;;;;;;9.80;8.90;;;17.40;99.90;;;;;;5050978;28;20638;-81
2022/08/30 06:18:11;;;;;;;9.97;9.20;;;17.40;99.90;;;;;;5039217;28;21200;-81
2022/08/30 06:20:41;;;;;;;11.03;9.93;;;17.60;99.90;;;;;;5043662;28;20675;-81
2022/08/30 06:23:08;;;;;;;10.63;9.73;;;17.60;99.90;;;;;;5044838;28;20650;-81
2022/08/30 06:25:36;;;;;;;11.77;9.07;;;17.70;99.90;;;;;;5043609;28;20638;-81
2022/08/30 06:28:04;;;;;;;9.77;8.77;;;17.70;99.90;;;;;;5040975;28;20667;-81
2022/08/30 06:30:31;;;;;;;10.23;9.33;;;17.80;99.90;;;;;;5041816;28;20638;-81
2022/08/30 06:32:59;;;;;;;9.83;9.03;;;18.00;99.90;;;;;;5042855;28;20721;-81
2022/08/30 06:35:27;;;;;;;8.43;7.73;;;18.10;99.90;;;;;;5042694;28;20634;-81
2022/08/30 06:37:54;;;;;;;9.60;8.77;;;18.20;99.90;;;;;;5043190;28;20626;-81
2022/08/30 06:40:21;;;;;;;9.50;8.70;;;18.40;99.90;;;;;;5040652;28;20622;-81
2022/08/30 06:42:49;;;;;;;9.43;8.50;;;18.40;99.90;;;;;;5043505;28;21061;-81
2022/08/30 06:45:16;;;;;;;8.77;7.73;;;18.50;99.90;;;;;;5042655;28;20638;-80
2022/08/30 06:47:43;;;;;;;10.40;8.47;;;18.70;99.90;;;;;;5042297;28;20721;-81
2022/08/30 06:50:12;;;;;;;8.40;7.63;;;18.80;99.90;;;;;;5041370;28;20629;-81
2022/08/30 06:52:41;;;;;;;10.83;7.97;;;18.80;99.90;;;;;;5040099;28;21227;-81
2022/08/30 06:55:08;;;;;;;11.13;8.20;;;19.00;99.90;;;;;;5040040;28;20639;-81
2022/08/30 06:57:35;;;;;;;9.47;8.70;;;19.20;99.90;;;;;;5041583;28;20628;-81
2022/08/30 07:00:03;;;;;;;8.37;7.73;;;19.30;99.90;;;;;;5042386;28;20628;-81
2022/08/30 07:02:30;;;;;;;8.50;7.80;;;19.40;99.90;;;;;;5041733;28;21308;-80
2022/08/30 07:04:57;;;;;;;10.20;9.20;;;19.50;99.90;;;;;;5040216;28;20669;-80
2022/08/30 07:07:25;;;;;;;8.60;6.53;;;19.60;99.90;;;;;;5041946;28;20988;-80
2022/08/30 07:09:52;;;;;;;8.33;7.60;;;19.70;99.90;;;;;;5039936;28;20980;-80
2022/08/30 07:12:19;;;;;;;8.10;7.40;;;19.90;99.90;;;;;;5041367;28;20782;-80
2022/08/30 07:14:46;;;;;;;9.07;8.10;;;19.90;99.90;;;;;;5042258;28;20616;-80
2022/08/30 07:19:57;;;;;;;8.33;7.63;;;20.00;99.90;;;;;;5041864;28;20963;-80
2022/08/30 07:22:25;;;;;;;8.97;8.07;;;20.00;99.90;;;;;;5040152;28;20657;-81
2022/08/30 07:24:52;;;;;;;8.03;7.20;;;20.10;99.90;;;;;;5043475;28;20680;-80
2022/08/30 07:27:19;;;;;;;7.43;6.73;;;20.20;99.90;;;;;;5039824;28;21000;-80
2022/08/30 07:29:48;;;;;;;7.90;6.90;;;20.40;99.90;;;;;;5043468;28;20637;-79
2022/08/30 07:32:15;;;;;;;9.03;7.43;;;20.50;99.90;;;;;;5046619;28;20656;-80
2022/08/30 07:34:42;;;;;;;8.93;7.90;;;20.60;99.90;;;;;;5044984;28;20645;-80
2022/08/30 07:37:08;;;;;;;7.97;7.30;;;20.70;99.90;;;;;;5048413;28;20633;-80
2022/08/30 07:39:37;;;;;;;10.33;7.03;;;21.00;99.90;;;;;;5047610;28;22117;-80
2022/08/30 07:42:04;;;;;;;7.20;6.50;;;21.10;99.90;;;;;;5044972;28;20646;-80
2022/08/30 07:44:31;;;;;;;7.90;6.43;;;21.30;99.90;;;;;;5045413;28;21010;-80
2022/08/30 07:46:58;;;;;;;8.00;5.40;;;21.40;99.90;;;;;;5045953;28;20630;-80
2022/08/30 07:49:25;;;;;;;6.43;5.93;;;21.60;99.90;;;;;;5044269;28;20637;-81
2022/08/30 07:51:51;;;;;;;7.23;6.47;;;21.80;99.90;;;;;;5046819;28;20760;-81
2022/08/30 07:54:18;;;;;;;9.80;6.90;;;22.00;99.90;;;;;;5042948;28;20976;-80
2022/08/30 07:56:47;;;;;;;6.77;6.17;;;22.00;99.90;;;;;;5044718;28;20640;-80
2022/08/30 07:59:14;;;;;;;6.30;5.70;;;22.20;99.90;;;;;;5044466;28;20761;-80
2022/08/30 08:01:41;;;;;;;6.03;5.50;;;22.30;99.90;;;;;;5042533;28;20661;-80
2022/08/30 08:04:08;;;;;;;7.50;6.30;;;22.50;99.90;;;;;;5044228;28;21329;-80
2022/08/30 08:06:38;;;;;;;7.33;5.80;;;22.60;99.90;;;;;;5044581;28;20629;-80
2022/08/30 08:09:05;;;;;;;5.90;5.30;;;22.80;99.90;;;;;;5042359;28;21242;-80
2022/08/30 08:11:34;;;;;;;6.90;5.93;;;22.90;99.90;;;;;;5044548;28;20645;-80
2022/08/30 08:14:03;;;;;;;9.27;5.80;;;23.00;99.90;;;;;;5043141;28;20614;-80
2022/08/30 08:16:32;;;;;;;8.77;6.10;;;23.10;99.90;;;;;;5044470;28;20626;-80
2022/08/30 08:18:59;;;;;;;6.00;5.00;;;23.20;99.90;;;;;;5043304;28;21235;-80
2022/08/30 08:21:27;;;;;;;6.20;5.60;;;23.30;99.90;;;;;;5044721;28;20654;-79
2022/08/30 08:23:55;;;;;;;5.70;5.20;;;23.40;99.90;;;;;;5044050;28;21180;-79
2022/08/30 08:26:22;;;;;;;8.10;5.90;;;23.60;99.90;;;;;;5041987;28;20630;-79
2022/08/30 08:28:49;;;;;;;5.50;5.10;;;23.70;99.90;;;;;;5045224;28;21214;-79
2022/08/30 08:31:20;;;;;;;5.80;5.20;;;23.80;99.90;;;;;;5045728;28;20654;-79
2022/08/30 08:33:47;;;;;;;5.83;5.20;;;23.90;99.90;;;;;;5047979;28;20625;-79
2022/08/30 08:36:14;;;;;;;5.90;5.40;;;24.00;99.90;;;;;;5041956;28;20676;-79
2022/08/30 08:38:42;;;;;;;6.07;5.53;;;24.10;99.90;;;;;;5046717;28;21196;-79
2022/08/30 08:41:20;;;;;;;6.00;5.50;;;24.20;99.90;;;;;;5043034;28;20748;-79
2022/08/30 08:43:46;;;;;;;5.80;5.30;;;24.40;99.90;;;;;;5045832;28;20657;-79
2022/08/30 08:46:24;;;;;;;7.23;6.40;;;24.50;99.90;;;;;;5043435;28;20668;-79
2022/08/30 08:48:55;;;;;;;5.63;5.13;;;24.50;99.90;;;;;;5044541;28;21195;-79
2022/08/30 08:54:15;;;;;;;6.17;5.57;;;24.80;99.90;;;;;;5042892;28;20769;-79
2022/08/30 08:56:42;;;;;;;9.00;4.93;;;24.90;99.90;;;;;;5040962;28;20641;-79
2022/08/30 08:59:10;;;;;;;8.07;5.50;;;25.00;99.90;;;;;;5044557;28;20745;-79
2022/08/30 09:01:39;;;;;;;5.30;4.90;;;25.10;99.90;;;;;;5043091;28;20654;-79
2022/08/30 09:04:10;;;;;;;5.97;5.47;;;25.10;99.90;;;;;;5044505;28;20669;-81
2022/08/30 09:06:51;;;;;;;6.70;6.20;;;25.30;99.90;;;;;;5044776;28;20629;-79
2022/08/30 09:09:21;;;;;;;6.67;6.03;;;25.40;99.90;;;;;;5043908;28;20634;-80
2022/08/30 09:11:48;;;;;;;6.90;5.30;;;25.40;99.90;;;;;;5052668;28;20727;-78
2022/08/30 09:14:19;;;;;;;5.97;5.40;;;25.50;99.90;;;;;;5045534;28;21009;-80
2022/08/30 09:16:56;;;;;;;5.77;5.17;;;25.60;99.90;;;;;;5044520;28;21196;-79
2022/08/30 09:19:36;;;;;;;6.23;5.63;;;25.70;99.90;;;;;;5043179;28;20622;-81
2022/08/30 09:22:06;;;;;;;6.20;5.60;;;25.90;99.90;;;;;;5040017;28;20626;-80
2022/08/30 09:24:42;;;;;;;10.13;5.43;;;25.90;99.90;;;;;;5043201;28;20665;-81
2022/08/30 09:27:23;;;;;;;6.33;5.63;;;26.00;99.90;;;;;;5042750;28;20636;-79
2022/08/30 09:29:53;;;;;;;7.00;5.60;;;26.10;99.90;;;;;;5040401;28;20696;-81
2022/08/30 09:32:30;;;;;;;5.57;5.10;;;26.20;99.90;;;;;;5040006;28;20845;-81
2022/08/30 09:34:57;;;;;;;5.30;4.90;;;26.30;99.90;;;;;;5036887;28;20626;-81
2022/08/30 09:37:29;;;;;;;7.50;6.07;;;26.50;99.90;;;;;;5038289;28;20978;-80
2022/08/30 09:39:56;;;;;;;5.00;4.50;;;26.60;99.90;;;;;;5039574;28;20649;-78
2022/08/30 09:42:25;;;;;;;6.07;5.47;;;26.80;97.50;;;;;;5040838;28;20641;-79
2022/08/30 09:45:09;;;;;;;5.47;5.07;;;26.80;95.50;;;;;;5042610;28;20773;-79
2022/08/30 09:47:39;;;;;;;4.90;4.60;;;26.90;96.60;;;;;;5043007;28;20618;-79
2022/08/30 09:50:09;;;;;;;5.47;5.03;;;27.00;94.90;;;;;;5041669;28;20630;-79
2022/08/30 09:52:45;;;;;;;5.60;5.17;;;27.20;93.10;;;;;;5042719;28;20634;-78
2022/08/30 09:55:25;;;;;;;5.60;5.20;;;27.30;92.20;;;;;;5041816;28;20667;-79
2022/08/30 09:57:59;;;;;;;5.10;4.70;;;27.30;91.10;;;;;;5040761;28;20657;-79
2022/08/30 10:00:30;;;;;;;5.20;4.80;;;27.20;88.60;;;;;;5043200;28;20622;-79
2022/08/30 10:03:26;;;;;;;5.67;5.27;;;27.30;90.10;;;;;;5041246;28;20652;-79
2022/08/30 10:06:00;;;;;;;4.47;4.17;;;27.30;87.90;;;;;;5036002;28;20666;-79
2022/08/30 10:08:38;;;;;;;5.10;4.70;;;27.40;89.10;;;;;;5039877;28;20668;-79
2022/08/30 10:11:11;;;;;;;5.33;4.87;;;27.60;88.10;;;;;;5040801;28;20652;-78
2022/08/30 10:13:58;;;;;;;5.67;5.23;;;27.70;82.60;;;;;;5042719;28;20617;-78
2022/08/30 10:16:37;;;;;;;5.77;5.37;;;27.80;81.00;;;;;;5042089;28;20978;-80
2022/08/30 10:19:23;;;;;;;4.93;4.53;;;27.90;83.30;;;;;;5042404;28;20680;-80
2022/08/30 10:21:58;;;;;;;5.37;4.97;;;28.10;80.70;;;;;;5041040;28;21022;-81
2022/08/30 10:24:30;;;;;;;6.03;5.60;;;28.30;80.90;;;;;;5041541;28;21020;-78
2022/08/30 10:27:04;;;;;;;4.63;4.23;;;28.40;82.10;;;;;;5041999;28;21157;-80
2022/08/30 10:29:35;;;;;;;5.20;4.80;;;28.70;79.00;;;;;;5042288;28;20673;-80
2022/08/30 10:32:10;;;;;;;5.63;5.10;;;28.90;73.70;;;;;;5040805;28;21013;-80
2022/08/30 10:34:41;;;;;;;6.07;5.47;;;29.00;76.30;;;;;;5040919;28;20609;-80
2022/08/30 10:37:12;;;;;;;4.83;4.43;;;29.30;76.20;;;;;;5039455;28;20649;-81
2022/08/30 10:39:43;;;;;;;4.87;4.50;;;29.40;70.40;;;;;;5041776;28;20727;-79
2022/08/30 10:42:17;;;;;;;6.60;6.10;;;29.50;69.60;;;;;;5041547;28;21276;-79
2022/08/30 10:44:49;;;;;;;5.43;5.03;;;29.70;65.00;;;;;;5043481;28;20664;-79
2022/08/30 10:47:25;;;;;;;6.50;6.00;;;29.80;67.00;;;;;;5038817;28;20706;-79
2022/08/30 10:50:01;;;;;;;7.53;6.83;;;30.20;68.30;;;;;;5040960;28;20653;-79
2022/08/30 10:52:34;;;;;;;8.03;7.53;;;30.50;65.10;;;;;;5041229;28;20672;-78
2022/08/30 10:55:07;;;;;;;9.30;8.50;;;30.60;59.60;;;;;;5041453;28;20626;-79
2022/08/30 10:57:34;;;;;;;8.43;7.93;;;30.50;59.30;;;;;;5042817;28;21099;-80
2022/08/30 11:00:05;;;;;;;5.10;4.70;;;30.80;59.10;;;;;;5042457;28;21184;-79
2022/08/30 11:03:08;;;;;;;8.50;7.97;;;31.20;59.60;;;;;;5042439;28;20638;-79
2022/08/30 11:06:03;;;;;;;4.50;4.13;;;31.60;58.70;;;;;;5043667;28;20657;-79
2022/08/30 11:08:48;;;;;;;4.60;4.23;;;32.10;56.90;;;;;;5042632;28;20701;-79
2022/08/30 11:11:22;;;;;;;6.97;6.50;;;32.60;55.50;;;;;;5047059;28;20635;-79
2022/08/30 11:13:49;;;;;;;6.90;6.43;;;32.80;54.50;;;;;;5044980;28;20634;-79
2022/08/30 11:16:18;;;;;;;4.67;4.30;;;33.20;54.80;;;;;;5045084;28;20610;-79
2022/08/30 11:18:47;;;;;;;7.60;4.67;;;33.50;53.40;;;;;;5046511;28;20653;-80
2022/08/30 11:21:30;;;;;;;17.73;4.87;;;33.80;50.70;;;;;;5045147;28;20633;-80
2022/08/30 11:24:03;;;;;;;7.90;4.30;;;33.80;49.80;;;;;;5043321;28;20617;-80
2022/08/30 11:27:06;;;;;;;5.27;4.83;;;33.60;50.20;;;;;;5044621;28;21008;-79
2022/08/30 11:29:36;;;;;;;4.40;3.87;;;33.40;49.20;;;;;;5044617;28;20664;-79
2022/08/30 11:33:00;;;;;;;4.53;4.23;;;33.30;48.40;;;;;;5043518;28;20640;-79
2022/08/30 11:35:40;;;;;;;4.57;4.27;;;33.60;48.60;;;;;;5042297;28;20658;-79
2022/08/30 11:38:18;;;;;;;4.03;3.73;;;33.90;47.50;;;;;;5044855;28;20652;-79
2022/08/30 11:40:52;;;;;;;4.30;3.90;;;34.10;47.60;;;;;;5043954;28;20609;-79
2022/08/30 11:43:51;;;;;;;8.00;7.60;;;34.50;46.60;;;;;;5049290;28;20674;-79
2022/08/30 11:46:23;;;;;;;4.30;4.00;;;34.70;44.90;;;;;;5045150;28;20662;-78
2022/08/30 11:48:54;;;;;;;5.07;4.57;;;34.40;44.70;;;;;;5043495;28;20712;-79
2022/08/30 11:51:49;;;;;;;4.73;4.20;;;34.00;44.80;;;;;;5046905;28;20618;-79
2022/08/30 11:54:28;;;;;;;3.90;3.40;;;34.00;46.00;;;;;;5046926;28;20633;-79
2022/08/30 11:57:02;;;;;;;4.27;3.97;;;34.00;45.30;;;;;;5044913;28;20617;-80
2022/08/30 11:59:39;;;;;;;5.87;4.10;;;34.00;45.30;;;;;;5046495;28;20662;-79
2022/08/30 12:02:07;;;;;;;4.40;4.00;;;33.90;45.60;;;;;;5042628;28;20634;-80
2022/08/30 12:04:45;;;;;;;5.60;5.17;;;34.10;45.50;;;;;;5043276;28;20839;-80
2022/08/30 12:07:32;;;;;;;5.43;4.93;;;34.00;45.30;;;;;;5043404;28;20625;-80
2022/08/30 12:10:01;;;;;;;4.90;4.50;;;34.10;45.70;;;;;;5045757;28;20621;-79
2022/08/30 12:12:46;;;;;;;4.73;4.43;;;33.70;45.70;;;;;;5046214;28;20630;-79
2022/08/30 12:15:28;;;;;;;5.17;4.70;;;33.50;45.70;;;;;;5042340;28;20604;-79
2022/08/30 12:20:50;;;;;;;4.50;4.20;;;33.10;45.60;;;;;;5020359;28;20613;-79
2022/08/30 12:23:23;;;;;;;5.67;5.07;;;32.90;45.80;;;;;;5042961;28;20634;-79
2022/08/30 12:26:08;;;;;;;4.80;4.40;;;32.60;46.20;;;;;;5044581;28;21023;-79
2022/08/30 12:28:35;;;;;;;5.00;4.40;;;32.60;46.50;;;;;;5045994;28;20718;-79
2022/08/30 12:31:09;;;;;;;4.70;4.40;;;32.80;46.50;;;;;;5043764;28;20648;-79
2022/08/30 12:33:41;;;;;;;4.57;4.30;;;32.70;46.50;;;;;;5046467;28;20620;-79
2022/08/30 12:36:13;;;;;;;4.60;4.30;;;33.00;46.30;;;;;;5039745;28;20616;-79
2022/08/30 12:38:40;;;;;;;5.77;4.17;;;33.50;46.20;;;;;;5044318;28;20663;-79
2022/08/30 12:41:17;;;;;;;5.20;4.13;;;33.80;46.30;;;;;;5044957;28;20632;-79
2022/08/30 12:43:50;;;;;;;4.70;4.30;;;34.00;45.40;;;;;;5045987;28;20651;-80
2022/08/30 12:46:19;;;;;;;7.60;7.10;;;34.10;45.30;;;;;;5043226;28;20661;-79
2022/08/30 12:48:46;;;;;;;6.90;6.50;;;34.40;45.40;;;;;;5045656;28;20676;-79
2022/08/30 12:51:29;;;;;;;6.87;6.40;;;34.80;44.70;;;;;;5043154;28;20631;-79
2022/08/30 12:54:08;;;;;;;7.53;7.03;;;35.30;44.30;;;;;;5041912;28;20714;-79
2022/08/30 12:56:52;;;;;;;8.77;7.90;;;35.20;43.20;;;;;;5044301;28;20629;-79
2022/08/30 12:59:42;;;;;;;4.20;3.80;;;35.20;43.30;;;;;;5044268;28;20223;-80
2022/08/30 13:02:13;;;;;;;4.70;4.40;;;35.60;43.40;;;;;;5043033;28;20609;-79
2022/08/30 13:04:40;;;;;;;7.17;6.80;;;35.70;42.80;;;;;;5042668;28;20221;-78
2022/08/30 13:07:07;;;;;;;4.80;4.40;;;35.80;42.40;;;;;;5043699;28;20596;-78
2022/08/30 13:09:36;;;;;;;4.93;4.50;;;35.70;41.30;;;;;;5040523;28;20218;-80
2022/08/30 13:12:08;;;;;;;4.53;4.20;;;35.40;41.50;;;;;;5043262;28;20254;-80